createdAt,value
2023-01-20T00:00:17.719Z,13.60
2023-01-20T00:03:25.330Z,13.10
2023-01-20T00:06:14.063Z,12.10
2023-01-20T00:09:04.022Z,9.90
2023-01-20T00:11:51.875Z,11.60
2023-01-20T00:14:39.702Z,11.20
2023-01-20T00:17:29.139Z,10.60
2023-01-20T00:20:17.307Z,10.10
2023-01-20T00:23:05.400Z,9.30
2023-01-20T00:25:53.257Z,9.10
2023-01-20T00:28:41.092Z,9.20
2023-01-20T00:31:32.137Z,11.20
2023-01-20T00:34:20.147Z,11.10
2023-01-20T00:37:08.123Z,11.40
2023-01-20T00:39:56.253Z,10.30
2023-01-20T00:42:44.192Z,9.50
2023-01-20T00:45:31.751Z,9.40
2023-01-20T00:48:19.890Z,9.30
2023-01-20T00:51:09.652Z,9.90
2023-01-20T00:53:57.234Z,10.70
2023-01-20T00:56:45.373Z,8.20
2023-01-20T00:59:33.928Z,6.70
2023-01-20T01:02:21.804Z,7.70
2023-01-20T01:05:09.879Z,9.20
2023-01-20T01:07:58.168Z,9.20
2023-01-20T01:10:45.881Z,9.10
2023-01-20T01:13:35.103Z,10.50
2023-01-20T01:16:23.933Z,11.10
2023-01-20T01:19:11.516Z,10.10
2023-01-20T01:21:59.532Z,12.00
2023-01-20T01:24:47.920Z,10.40
2023-01-20T01:27:36.945Z,10.30
2023-01-20T01:30:25.148Z,9.20
2023-01-20T01:33:12.942Z,8.80
2023-01-20T01:36:03.392Z,8.00
2023-01-20T01:38:57.144Z,10.40
2023-01-20T01:41:47.121Z,12.00
2023-01-20T01:44:38.865Z,9.80
2023-01-20T01:47:26.826Z,9.00
2023-01-20T01:50:20.511Z,9.70
2023-01-20T01:53:09.999Z,9.20
2023-01-20T01:56:02.691Z,9.50
2023-01-20T01:58:55.511Z,10.30
2023-01-20T02:01:49.575Z,7.80
2023-01-20T02:04:38.833Z,11.80
2023-01-20T02:07:27.325Z,11.00
2023-01-20T02:10:16.412Z,10.30
2023-01-20T02:13:05.157Z,9.00
2023-01-20T02:16:07.680Z,8.50
2023-01-20T02:18:58.841Z,9.60
2023-01-20T02:22:30.700Z,9.20
2023-01-20T02:25:33.757Z,8.50
2023-01-20T02:28:45.533Z,11.00
2023-01-20T02:32:00.759Z,11.00
2023-01-20T02:35:16.531Z,10.00
2023-01-20T02:38:23.768Z,10.70
2023-01-20T02:41:23.632Z,9.70
2023-01-20T02:44:25.326Z,6.70
2023-01-20T02:47:57.604Z,10.20
2023-01-20T02:51:05.315Z,8.60
2023-01-20T02:54:17.105Z,8.00
2023-01-20T02:57:09.644Z,11.00
2023-01-20T03:00:07.585Z,11.20
2023-01-20T03:02:59.484Z,11.20
2023-01-20T03:05:55.256Z,11.60
2023-01-20T03:08:45.564Z,10.90
2023-01-20T03:11:36.442Z,11.60
2023-01-20T03:14:24.451Z,10.50
2023-01-20T03:17:12.107Z,9.80
2023-01-20T03:20:01.616Z,8.30
2023-01-20T03:22:50.030Z,9.20
2023-01-20T03:25:39.257Z,10.80
2023-01-20T03:28:27.454Z,9.80
2023-01-20T03:31:20.691Z,11.40
2023-01-20T03:34:13.407Z,10.30
2023-01-20T03:37:03.893Z,10.80
2023-01-20T03:39:52.551Z,10.80
2023-01-20T03:43:06.638Z,10.10
2023-01-20T03:46:05.714Z,10.40
2023-01-20T03:49:34.238Z,7.90
2023-01-20T03:52:51.133Z,7.30
2023-01-20T03:55:48.413Z,10.70
2023-01-20T03:58:41.056Z,11.30
2023-01-20T04:01:38.612Z,9.90
2023-01-20T04:04:26.443Z,11.40
2023-01-20T04:07:21.423Z,11.30
2023-01-20T04:10:15.035Z,11.00
2023-01-20T04:13:02.936Z,11.30
2023-01-20T04:15:51.267Z,9.10
2023-01-20T04:18:47.172Z,7.90
2023-01-20T04:21:47.368Z,8.90
2023-01-20T04:24:52.395Z,9.10
2023-01-20T04:27:40.522Z,9.40
2023-01-20T04:30:28.369Z,10.20
2023-01-20T04:33:16.497Z,11.40
2023-01-20T04:36:05.141Z,9.30
2023-01-20T04:38:52.923Z,11.60
2023-01-20T04:41:41.435Z,10.70
2023-01-20T04:44:29.439Z,11.00
2023-01-20T04:47:17.369Z,9.90
2023-01-20T04:50:06.115Z,9.50
2023-01-20T04:52:56.614Z,9.60
2023-01-20T04:55:44.532Z,11.80
2023-01-20T04:58:32.435Z,10.60
2023-01-20T05:01:20.495Z,12.10
2023-01-20T05:04:08.423Z,12.40
2023-01-20T05:06:56.641Z,11.80
2023-01-20T05:09:44.432Z,13.10
2023-01-20T05:12:32.712Z,12.80
2023-01-20T05:15:20.648Z,8.50
2023-01-20T05:18:08.420Z,12.50
2023-01-20T05:20:56.321Z,9.80
2023-01-20T05:23:44.048Z,12.10
2023-01-20T05:26:32.947Z,11.10
2023-01-20T05:29:21.101Z,9.40
2023-01-20T05:32:09.141Z,11.20
2023-01-20T05:34:57.104Z,11.90
2023-01-20T05:37:45.253Z,13.10
2023-01-20T05:40:32.968Z,12.80
2023-01-20T05:43:20.710Z,11.90
2023-01-20T05:46:08.901Z,11.70
2023-01-20T05:48:56.711Z,11.50
2023-01-20T05:51:44.588Z,11.30
2023-01-20T05:54:32.792Z,9.00
2023-01-20T05:57:24.551Z,8.20
2023-01-20T06:00:14.222Z,9.50
2023-01-20T06:03:03.572Z,10.40
2023-01-20T06:05:51.304Z,9.60
2023-01-20T06:08:39.304Z,11.20
2023-01-20T06:11:27.913Z,10.00
2023-01-20T06:14:15.667Z,10.90
2023-01-20T06:17:03.628Z,10.40
2023-01-20T06:19:51.783Z,10.30
2023-01-20T06:22:39.886Z,9.70
2023-01-20T06:25:27.663Z,9.50
2023-01-20T06:28:15.544Z,9.80
2023-01-20T06:31:15.793Z,10.70
2023-01-20T06:34:04.021Z,12.40
2023-01-20T06:36:52.068Z,10.30
2023-01-20T06:39:40.578Z,9.20
2023-01-20T06:42:28.441Z,11.90
2023-01-20T06:45:17.253Z,6.60
2023-01-20T06:48:05.331Z,8.50
2023-01-20T06:50:53.260Z,11.70
2023-01-20T06:53:41.703Z,11.50
2023-01-20T06:56:29.380Z,11.30
2023-01-20T06:59:17.092Z,11.60
2023-01-20T07:02:05.357Z,10.50
2023-01-20T07:04:53.534Z,9.90
2023-01-20T07:07:45.874Z,10.10
2023-01-20T07:10:33.636Z,9.40
2023-01-20T07:13:21.557Z,11.50
2023-01-20T07:16:12.081Z,12.10
2023-01-20T07:19:01.269Z,12.80
2023-01-20T07:21:49.327Z,13.30
2023-01-20T07:24:37.601Z,12.30
2023-01-20T07:27:25.496Z,13.00
2023-01-20T07:30:13.759Z,14.20
2023-01-20T07:33:01.270Z,10.20
2023-01-20T07:35:54.972Z,13.20
2023-01-20T07:38:43.797Z,10.70
2023-01-20T07:41:32.167Z,10.90
2023-01-20T07:44:20.082Z,11.90
2023-01-20T07:47:08.047Z,11.80
2023-01-20T07:49:56.069Z,12.20
2023-01-20T07:52:44.797Z,8.90
2023-01-20T07:55:33.815Z,9.60
2023-01-20T07:58:21.790Z,8.70
2023-01-20T08:01:15.716Z,9.20
2023-01-20T08:04:04.520Z,11.30
2023-01-20T08:06:52.516Z,12.90
2023-01-20T08:09:41.721Z,13.20
2023-01-20T08:12:30.209Z,12.50
2023-01-20T08:15:18.098Z,14.60
2023-01-20T08:18:05.933Z,11.90
2023-01-20T08:20:54.266Z,10.80
2023-01-20T08:23:42.382Z,10.40
2023-01-20T08:26:31.048Z,13.80
2023-01-20T08:29:19.139Z,11.90
2023-01-20T08:32:06.916Z,12.70
2023-01-20T08:34:55.296Z,12.10
2023-01-20T08:37:42.985Z,10.80
2023-01-20T08:40:33.308Z,12.50
2023-01-20T08:43:21.943Z,12.90
2023-01-20T08:46:16.493Z,11.90
2023-01-20T08:49:14.220Z,14.00
2023-01-20T08:52:02.496Z,12.90
2023-01-20T08:54:54.108Z,10.40
2023-01-20T08:57:42.138Z,11.40
2023-01-20T09:00:30.446Z,11.50
2023-01-20T09:03:18.657Z,12.60
2023-01-20T09:06:08.257Z,10.90
2023-01-20T09:08:56.352Z,13.80
2023-01-20T09:11:50.721Z,11.90
2023-01-20T09:14:39.544Z,12.90
2023-01-20T09:17:27.782Z,10.70
2023-01-20T09:20:16.447Z,10.40
2023-01-20T09:23:04.250Z,13.20
2023-01-20T09:25:52.651Z,12.10
2023-01-20T09:28:42.343Z,9.80
2023-01-20T09:31:30.528Z,10.80
2023-01-20T09:34:24.649Z,12.10
2023-01-20T09:37:30.569Z,13.20
2023-01-20T09:40:47.961Z,13.40
2023-01-20T09:43:56.998Z,8.60
2023-01-20T09:47:07.599Z,10.70
2023-01-20T09:50:51.624Z,11.40
2023-01-20T09:54:03.815Z,11.90
2023-01-20T09:56:54.920Z,12.50
2023-01-20T10:00:07.417Z,11.30
2023-01-20T10:03:11.939Z,10.90
2023-01-20T10:06:01.996Z,9.80
2023-01-20T10:09:06.513Z,11.70
2023-01-20T10:12:06.263Z,13.20
2023-01-20T10:15:07.524Z,13.00
2023-01-20T10:18:13.116Z,13.20
2023-01-20T10:21:28.432Z,14.00
2023-01-20T10:24:29.653Z,11.40
2023-01-20T10:27:17.622Z,12.30
2023-01-20T10:30:15.791Z,11.30
2023-01-20T10:33:12.458Z,11.90
2023-01-20T10:36:01.418Z,10.00
2023-01-20T10:38:59.661Z,11.80
2023-01-20T10:42:00.417Z,14.30
2023-01-20T10:44:51.591Z,14.70
2023-01-20T10:48:06.869Z,13.10
2023-01-20T10:51:18.077Z,13.20
2023-01-20T10:54:56.709Z,9.60
2023-01-20T10:57:56.935Z,13.50
2023-01-20T11:00:45.105Z,12.60
2023-01-20T11:03:45.213Z,12.10
2023-01-20T11:06:33.301Z,13.00
2023-01-20T11:09:27.999Z,13.40
2023-01-20T11:12:21.152Z,13.00
2023-01-20T11:15:36.910Z,13.00
2023-01-20T11:18:31.125Z,15.70
2023-01-20T11:21:28.350Z,15.90
2023-01-20T11:24:45.230Z,16.10
2023-01-20T11:27:44.467Z,13.50
2023-01-20T11:30:35.356Z,14.80
2023-01-20T11:33:28.290Z,15.10
2023-01-20T11:36:19.945Z,15.20
2023-01-20T11:39:25.552Z,15.60
2023-01-20T11:42:28.871Z,14.50
2023-01-20T11:45:29.414Z,15.00
2023-01-20T11:48:20.320Z,17.30
2023-01-20T11:51:27.213Z,13.10
2023-01-20T11:54:30.300Z,12.80
2023-01-20T11:57:18.691Z,13.10
2023-01-20T12:00:27.337Z,14.10
2023-01-20T12:03:45.441Z,15.60
2023-01-20T12:06:52.012Z,14.30
2023-01-20T12:09:51.331Z,13.70
2023-01-20T12:12:52.387Z,16.10
2023-01-20T12:15:54.787Z,13.30
2023-01-20T12:19:01.721Z,13.70
2023-01-20T12:21:56.881Z,11.50
2023-01-20T12:25:18.069Z,15.90
2023-01-20T12:28:18.905Z,16.10
2023-01-20T12:31:13.169Z,13.50
2023-01-20T12:34:20.432Z,16.00
2023-01-20T12:37:55.430Z,13.60
2023-01-20T12:40:55.212Z,13.40
2023-01-20T12:44:17.698Z,13.10
2023-01-20T12:47:29.884Z,12.30
2023-01-20T12:51:05.805Z,17.00
2023-01-20T12:54:42.981Z,16.30
2023-01-20T12:58:07.678Z,15.10
2023-01-20T13:01:04.488Z,15.00
2023-01-20T13:04:38.481Z,12.60
2023-01-20T13:07:32.449Z,14.60
2023-01-20T13:10:48.982Z,18.50
2023-01-20T13:13:59.816Z,17.50
2023-01-20T13:17:17.435Z,15.30
2023-01-20T13:20:21.665Z,13.60
2023-01-20T13:23:14.681Z,14.80
2023-01-20T13:26:06.200Z,18.20
2023-01-20T13:28:58.943Z,14.00
2023-01-20T13:31:47.320Z,16.90
2023-01-20T13:34:39.242Z,17.00
2023-01-20T13:37:38.029Z,16.20
2023-01-20T13:40:38.048Z,16.90
2023-01-20T13:43:31.860Z,16.00
2023-01-20T13:46:20.305Z,14.40
2023-01-20T13:49:48.876Z,13.50
2023-01-20T13:52:54.428Z,12.00
2023-01-20T13:55:44.096Z,15.10
2023-01-20T13:58:34.543Z,12.60
2023-01-20T14:01:22.600Z,14.40
2023-01-20T14:04:18.867Z,17.00
2023-01-20T14:07:21.738Z,16.60
2023-01-20T14:10:12.786Z,15.80
2023-01-20T14:13:01.033Z,15.60
2023-01-20T14:15:53.065Z,17.00
2023-01-20T14:18:43.075Z,16.60
2023-01-20T14:21:40.398Z,16.30
2023-01-20T14:24:43.091Z,13.80
2023-01-20T14:27:37.248Z,12.30
2023-01-20T14:30:27.830Z,12.10
2023-01-20T14:33:16.696Z,13.70
2023-01-20T14:36:08.562Z,15.50
2023-01-20T14:39:03.652Z,14.60
2023-01-20T14:41:55.712Z,16.00
2023-01-20T14:44:48.253Z,16.50
2023-01-20T14:47:37.631Z,17.30
2023-01-20T14:50:26.466Z,15.50
2023-01-20T14:53:15.324Z,15.90
2023-01-20T14:56:07.655Z,16.40
2023-01-20T14:58:56.243Z,15.70
2023-01-20T15:01:55.530Z,14.00
2023-01-20T15:04:43.697Z,16.30
2023-01-20T15:07:31.542Z,19.90
2023-01-20T15:10:19.818Z,20.30
2023-01-20T15:13:28.145Z,21.10
2023-01-20T15:16:18.932Z,17.30
2023-01-20T15:19:16.578Z,17.60
2023-01-20T15:22:20.716Z,14.70
2023-01-20T15:25:13.574Z,20.30
2023-01-20T15:28:01.744Z,20.80
2023-01-20T15:30:50.277Z,16.70
2023-01-20T15:33:38.596Z,21.60
2023-01-20T15:36:37.172Z,21.30
2023-01-20T15:39:31.520Z,22.10
2023-01-20T15:42:20.113Z,21.60
2023-01-20T15:45:11.903Z,23.10
2023-01-20T15:48:00.028Z,16.40
2023-01-20T15:50:49.239Z,18.40
2023-01-20T15:53:38.137Z,19.10
2023-01-20T15:56:30.168Z,18.70
2023-01-20T15:59:22.705Z,18.10
2023-01-20T16:02:19.787Z,20.90
2023-01-20T16:05:08.286Z,21.80
2023-01-20T16:07:56.800Z,21.30
2023-01-20T16:10:45.192Z,22.40
2023-01-20T16:13:33.240Z,24.50
2023-01-20T16:16:24.028Z,21.80
2023-01-20T16:19:16.066Z,22.00
2023-01-20T16:22:04.030Z,20.20
2023-01-20T16:24:52.631Z,17.60
2023-01-20T16:27:40.761Z,17.40
2023-01-20T16:30:29.003Z,20.30
2023-01-20T16:33:27.654Z,22.20
2023-01-20T16:36:19.270Z,19.20
2023-01-20T16:39:07.366Z,22.10
2023-01-20T16:41:55.184Z,22.20
2023-01-20T16:44:43.237Z,22.40
2023-01-20T16:47:30.942Z,22.30
2023-01-20T16:50:19.441Z,23.50
2023-01-20T16:53:07.049Z,23.10
2023-01-20T16:55:54.608Z,24.00
2023-01-20T16:58:43.479Z,22.00
2023-01-20T17:01:32.147Z,20.30
2023-01-20T17:04:20.750Z,17.00
2023-01-20T17:07:08.680Z,18.30
2023-01-20T17:09:57.660Z,23.80
2023-01-20T17:12:48.836Z,23.50
2023-01-20T17:15:38.580Z,23.60
2023-01-20T17:18:26.641Z,21.30
2023-01-20T17:21:15.067Z,22.10
2023-01-20T17:24:05.876Z,20.90
2023-01-20T17:26:53.608Z,16.40
2023-01-20T17:29:41.461Z,15.60
2023-01-20T17:32:29.537Z,19.20
2023-01-20T17:35:17.652Z,22.80
2023-01-20T17:38:05.889Z,24.50
2023-01-20T17:40:53.683Z,21.00
2023-01-20T17:43:48.560Z,21.90
2023-01-20T17:46:36.462Z,26.50
2023-01-20T17:49:24.680Z,25.10
2023-01-20T17:52:13.048Z,24.20
2023-01-20T17:55:00.664Z,22.30
2023-01-20T17:57:51.759Z,20.20
2023-01-20T18:00:39.756Z,20.60
2023-01-20T18:03:27.775Z,21.20
2023-01-20T18:06:17.973Z,19.30
2023-01-20T18:09:08.224Z,18.50
2023-01-20T18:11:56.096Z,19.60
2023-01-20T18:14:43.854Z,20.50
2023-01-20T18:17:34.504Z,22.60
2023-01-20T18:20:23.126Z,22.50
2023-01-20T18:23:12.007Z,21.70
2023-01-20T18:25:59.759Z,19.00
2023-01-20T18:28:48.339Z,20.00
2023-01-20T18:31:40.921Z,20.10
2023-01-20T18:34:29.308Z,17.90
2023-01-20T18:37:17.618Z,16.00
2023-01-20T18:40:07.330Z,15.70
2023-01-20T18:42:55.068Z,18.00
2023-01-20T18:45:43.418Z,18.90
2023-01-20T18:48:31.921Z,19.20
2023-01-20T18:51:23.582Z,22.60
2023-01-20T18:54:26.959Z,21.30
2023-01-20T18:57:14.726Z,19.40
2023-01-20T19:00:04.112Z,21.50
2023-01-20T19:02:53.309Z,21.10
2023-01-20T19:05:41.337Z,20.90
2023-01-20T19:08:29.236Z,20.30
2023-01-20T19:11:24.718Z,20.60
2023-01-20T19:14:15.224Z,15.40
2023-01-20T19:17:03.136Z,17.70
2023-01-20T19:19:51.117Z,21.00
2023-01-20T19:22:39.524Z,21.80
2023-01-20T19:25:31.625Z,22.40
2023-01-20T19:28:19.678Z,21.30
2023-01-20T19:31:11.062Z,19.80
2023-01-20T19:33:59.880Z,19.20
2023-01-20T19:36:48.100Z,20.10
2023-01-20T19:39:36.402Z,19.00
2023-01-20T19:42:25.737Z,20.50
2023-01-20T19:45:15.701Z,20.10
2023-01-20T19:48:05.116Z,18.90
2023-01-20T19:50:53.903Z,20.60
2023-01-20T19:53:43.908Z,21.30
2023-01-20T19:56:35.208Z,22.80
2023-01-20T19:59:23.119Z,21.60
2023-01-20T20:02:11.371Z,23.20
2023-01-20T20:04:59.630Z,25.20
2023-01-20T20:07:48.040Z,25.40
2023-01-20T20:10:42.960Z,27.00
2023-01-20T20:13:30.903Z,20.10
2023-01-20T20:16:20.276Z,23.50
2023-01-20T20:19:14.071Z,20.90
2023-01-20T20:22:02.907Z,25.80
2023-01-20T20:24:52.303Z,27.40
2023-01-20T20:27:40.754Z,26.20
2023-01-20T20:30:29.849Z,25.50
2023-01-20T20:33:20.024Z,26.40
2023-01-20T20:36:09.988Z,26.50
2023-01-20T20:38:58.912Z,26.90
2023-01-20T20:41:47.582Z,24.60
2023-01-20T20:44:36.060Z,21.50
2023-01-20T20:47:26.980Z,23.50
2023-01-20T20:50:15.424Z,19.30
2023-01-20T20:53:03.597Z,21.30
2023-01-20T20:55:55.336Z,32.90
2023-01-20T20:58:59.996Z,52.60
2023-01-20T21:01:49.444Z,44.50
2023-01-20T21:04:37.451Z,37.40
2023-01-20T21:07:25.463Z,28.80
2023-01-20T21:10:16.469Z,27.70
2023-01-20T21:13:07.108Z,27.70
2023-01-20T21:16:01.644Z,23.60
2023-01-20T21:18:52.157Z,23.40
2023-01-20T21:21:40.228Z,20.80
2023-01-20T21:24:29.127Z,30.00
2023-01-20T21:27:17.015Z,30.20
2023-01-20T21:30:05.670Z,30.00
2023-01-20T21:32:54.240Z,28.40
2023-01-20T21:35:42.605Z,28.00
2023-01-20T21:38:31.620Z,25.50
2023-01-20T21:41:20.144Z,21.80
2023-01-20T21:44:28.934Z,24.60
2023-01-20T21:47:16.831Z,20.50
2023-01-20T21:50:23.598Z,18.70
2023-01-20T21:53:14.627Z,16.40
2023-01-20T21:56:02.768Z,21.00
2023-01-20T21:58:50.945Z,20.40
2023-01-20T22:01:39.156Z,20.90
2023-01-20T22:04:27.341Z,19.70
2023-01-20T22:07:16.054Z,17.70
2023-01-20T22:10:05.218Z,19.70
2023-01-20T22:12:53.234Z,18.30
2023-01-20T22:15:41.296Z,17.80
2023-01-20T22:18:30.432Z,17.70
2023-01-20T22:21:19.813Z,17.90
2023-01-20T22:24:07.767Z,16.80
2023-01-20T22:26:56.564Z,15.30
2023-01-20T22:29:44.372Z,18.00
2023-01-20T22:32:32.063Z,16.40
2023-01-20T22:35:20.103Z,17.60
2023-01-20T22:38:08.092Z,18.60
2023-01-20T22:40:55.915Z,17.40
2023-01-20T22:43:48.180Z,17.40
2023-01-20T22:46:36.212Z,16.90
2023-01-20T22:49:24.038Z,15.10
2023-01-20T22:52:11.765Z,17.50
2023-01-20T22:54:59.548Z,15.80
2023-01-20T22:57:47.688Z,14.00
2023-01-20T23:00:35.524Z,14.10
2023-01-20T23:03:23.407Z,14.00
2023-01-20T23:06:11.883Z,15.20
2023-01-20T23:09:03.029Z,16.10
2023-01-20T23:11:50.978Z,15.50
2023-01-20T23:14:57.594Z,15.60
2023-01-20T23:17:45.680Z,13.30
2023-01-20T23:20:33.667Z,14.20
2023-01-20T23:23:22.767Z,12.00
2023-01-20T23:26:18.942Z,14.10
2023-01-20T23:29:06.980Z,11.30
2023-01-20T23:31:54.625Z,13.30
2023-01-20T23:34:42.350Z,14.70
2023-01-20T23:37:30.343Z,14.40
2023-01-20T23:40:19.157Z,13.90
2023-01-20T23:43:07.072Z,15.90
2023-01-20T23:46:04.844Z,15.00
2023-01-20T23:48:53.210Z,13.10
2023-01-20T23:51:41.200Z,13.90
2023-01-20T23:54:29.392Z,13.10
2023-01-20T23:57:17.378Z,12.20
